Time;durP1;ratioP1;P1;durP2;ratioP2;P2;SDS_P1;SDS_P2;PMS_P1;PMS_P2;Temp;Humidity;BMP_temperature;BMP_pressure;BME280_temperature;BME280_humidity;BME280_pressure;Samples;Min_cycle;Max_cycle;Signal;HPM_P1;HPM_P2
2021/09/01 00:00:57;;;;;;;22.87;11.90;;;15.30;1.00;;;;;;4998458;28;20469;-59
2021/09/01 00:03:26;;;;;;;23.00;12.00;;;15.30;1.00;;;;;;4998674;28;20466;-59
2021/09/01 00:05:53;;;;;;;15.93;10.57;;;15.30;1.00;;;;;;4998542;28;20472;-59
2021/09/01 00:08:20;;;;;;;22.07;11.37;;;15.30;1.00;;;;;;4998092;28;20812;-54
2021/09/01 00:10:47;;;;;;;24.63;12.60;;;15.10;1.00;;;;;;4998057;28;20897;-56
2021/09/01 00:13:14;;;;;;;17.67;12.17;;;15.10;25.10;;;;;;4998361;28;20839;-54
2021/09/01 00:15:41;;;;;;;25.40;12.77;;;15.10;45.30;;;;;;4998219;28;20469;-51
2021/09/01 00:18:10;;;;;;;20.90;11.67;;;15.20;80.40;;;;;;4997854;28;20504;-56
2021/09/01 00:20:40;;;;;;;19.43;10.70;;;15.10;58.80;;;;;;4997619;28;20930;-57
2021/09/01 00:23:08;;;;;;;19.10;10.80;;;15.20;50.80;;;;;;4998328;28;20909;-56
2021/09/01 00:25:35;;;;;;;22.60;11.43;;;15.10;24.30;;;;;;4978878;28;20462;-55
2021/09/01 00:28:02;;;;;;;17.07;10.63;;;15.10;99.90;;;;;;4993889;28;20468;-55
2021/09/01 00:30:29;;;;;;;12.77;10.67;;;15.00;53.10;;;;;;4997795;28;20825;-55
2021/09/01 00:32:56;;;;;;;19.50;10.07;;;14.90;99.90;;;;;;4997665;28;20543;-56
2021/09/01 00:35:28;;;;;;;18.00;10.50;;;14.90;99.90;;;;;;4998449;28;20468;-54
2021/09/01 00:37:56;;;;;;;18.57;11.43;;;14.90;99.90;;;;;;4997888;28;20882;-56
2021/09/01 00:40:23;;;;;;;20.37;10.83;;;14.90;99.90;;;;;;4997745;28;20484;-59
2021/09/01 00:42:50;;;;;;;17.00;10.83;;;14.90;99.90;;;;;;4997584;28;20543;-59
2021/09/01 00:45:17;;;;;;;16.57;11.00;;;14.90;99.90;;;;;;4997673;28;20515;-59
2021/09/01 00:47:44;;;;;;;17.57;10.30;;;15.00;99.90;;;;;;4997797;28;20816;-58
2021/09/01 00:50:12;;;;;;;14.67;10.67;;;14.90;94.40;;;;;;4997493;28;20488;-59
2021/09/01 00:52:41;;;;;;;14.90;9.43;;;14.90;82.80;;;;;;4997522;28;20489;-58
2021/09/01 00:55:21;;;;;;;18.60;10.17;;;14.80;99.90;;;;;;4997869;28;20465;-58
2021/09/01 00:57:48;;;;;;;19.97;10.23;;;14.70;99.90;;;;;;4997841;28;20534;-58
2021/09/01 01:00:24;;;;;;;16.60;10.20;;;14.70;99.90;;;;;;4998554;28;20496;-58
2021/09/01 01:02:51;;;;;;;15.27;10.20;;;14.70;99.90;;;;;;5001721;28;20724;-58
2021/09/01 01:05:18;;;;;;;14.87;9.50;;;14.80;99.90;;;;;;5000383;28;20526;-59
2021/09/01 01:07:45;;;;;;;18.40;10.10;;;14.80;99.90;;;;;;5001149;28;20492;-58
2021/09/01 01:10:17;;;;;;;18.20;9.80;;;14.80;73.70;;;;;;5000555;28;20525;-54
2021/09/01 01:12:44;;;;;;;12.60;10.27;;;14.70;53.10;;;;;;5001023;28;20523;-58
2021/09/01 01:15:11;;;;;;;16.93;10.70;;;14.80;99.90;;;;;;5001130;28;20439;-57
2021/09/01 01:17:39;;;;;;;14.43;9.50;;;14.80;64.50;;;;;;5001247;28;20464;-55
2021/09/01 01:20:07;;;;;;;13.33;10.23;;;14.80;42.70;;;;;;5001370;28;20492;-55
2021/09/01 01:22:34;;;;;;;17.50;10.23;;;14.70;3.60;;;;;;5000945;28;20465;-55
2021/09/01 01:25:04;;;;;;;15.20;9.50;;;14.70;1.00;;;;;;4987159;28;20805;-57
2021/09/01 01:27:35;;;;;;;11.40;9.10;;;14.70;1.00;;;;;;4992807;28;20468;-54
2021/09/01 01:30:11;;;;;;;16.83;10.07;;;14.80;1.00;;;;;;5001595;28;20457;-58
2021/09/01 01:32:39;;;;;;;15.70;9.07;;;14.80;1.00;;;;;;5000955;28;20503;-58
2021/09/01 01:35:08;;;;;;;15.47;9.70;;;14.90;99.90;;;;;;5001008;28;20571;-58
2021/09/01 01:37:35;;;;;;;16.57;8.33;;;14.80;99.90;;;;;;5000998;28;20531;-58
2021/09/01 01:40:05;;;;;;;15.07;9.10;;;14.80;99.90;;;;;;5001320;28;20465;-59
2021/09/01 01:42:40;;;;;;;14.00;9.20;;;14.80;99.90;;;;;;5000845;28;20447;-59
2021/09/01 01:45:11;;;;;;;15.13;9.90;;;14.90;99.90;;;;;;5001087;28;20526;-58
2021/09/01 01:47:38;;;;;;;16.57;9.10;;;14.80;1.00;;;;;;5001045;28;20469;-59
2021/09/01 01:50:08;;;;;;;23.40;9.17;;;14.80;1.00;;;;;;5001199;28;20460;-58
2021/09/01 01:52:36;;;;;;;18.07;9.97;;;14.80;99.90;;;;;;5000473;28;20514;-58
2021/09/01 01:55:03;;;;;;;15.53;9.33;;;14.70;99.90;;;;;;5000853;28;20535;-53
2021/09/01 01:57:30;;;;;;;14.60;8.63;;;14.70;99.90;;;;;;5000314;28;20538;-58
2021/09/01 01:59:59;;;;;;;17.93;8.53;;;14.70;99.90;;;;;;5000734;28;20894;-58
2021/09/01 02:02:30;;;;;;;12.13;8.87;;;14.70;99.90;;;;;;5000277;28;20886;-57
2021/09/01 02:05:00;;;;;;;16.50;7.90;;;14.80;1.00;;;;;;5000328;28;20465;-58
2021/09/01 02:07:27;;;;;;;12.67;7.93;;;14.80;20.70;;;;;;5000425;28;20471;-58
2021/09/01 02:09:55;;;;;;;13.70;8.20;;;14.80;99.90;;;;;;5000578;28;20461;-57
2021/09/01 02:12:22;;;;;;;15.63;8.40;;;14.90;99.90;;;;;;4999763;28;20464;-57
2021/09/01 02:14:49;;;;;;;14.33;9.07;;;14.90;1.00;;;;;;5000482;28;20536;-58
2021/09/01 02:17:18;;;;;;;9.30;8.07;;;14.80;99.90;;;;;;5000185;28;20465;-56
2021/09/01 02:19:45;;;;;;;13.87;7.90;;;14.80;1.00;;;;;;5000310;28;20552;-50
2021/09/01 02:22:12;;;;;;;12.27;7.87;;;14.90;1.00;;;;;;4999976;28;20522;-58
2021/09/01 02:24:39;;;;;;;15.60;7.87;;;14.90;99.90;;;;;;4988909;28;20485;-52
2021/09/01 02:27:06;;;;;;;12.93;7.80;;;14.90;99.90;;;;;;4988273;28;20523;-57
2021/09/01 02:29:33;;;;;;;14.03;7.97;;;14.90;1.00;;;;;;5000187;28;20504;-58
2021/09/01 03:05:37;;;;;;;19.13;9.40;;;14.70;99.90;;;;;;4997362;28;20816;-58
2021/09/01 03:08:05;;;;;;;15.67;9.50;;;14.60;1.00;;;;;;4999343;28;20460;-58
2021/09/01 03:10:32;;;;;;;17.60;10.00;;;14.60;99.90;;;;;;4999021;28;20889;-58
2021/09/01 03:12:59;;;;;;;11.83;9.23;;;14.50;1.00;;;;;;4999175;28;20461;-58
2021/09/01 03:15:26;;;;;;;11.53;9.23;;;14.50;1.00;;;;;;4999275;28;20496;-58
2021/09/01 03:17:53;;;;;;;16.07;10.30;;;14.50;1.00;;;;;;4999615;28;20461;-58
2021/09/01 03:20:20;;;;;;;15.40;9.60;;;14.40;1.00;;;;;;4999031;28;20520;-58
2021/09/01 03:22:48;;;;;;;13.60;9.60;;;14.40;1.00;;;;;;4998360;28;20465;-58
2021/09/01 03:25:15;;;;;;;15.67;9.80;;;14.40;8.70;;;;;;4998570;28;20457;-57
2021/09/01 03:27:42;;;;;;;14.53;9.40;;;14.40;24.80;;;;;;4986036;28;20466;-58
2021/09/01 04:04:37;;;;;;;15.63;10.87;;;14.40;52.70;;;;;;2816700;23;20883;-59
2021/09/01 04:07:05;;;;;;;15.70;11.00;;;14.30;45.00;;;;;;4998420;28;20507;-55
2021/09/01 04:09:33;;;;;;;17.77;11.47;;;14.30;70.10;;;;;;4998649;28;20555;-56
2021/09/01 04:12:00;;;;;;;13.60;10.33;;;14.20;99.50;;;;;;4998304;28;20847;-56
2021/09/01 04:14:27;;;;;;;16.83;12.13;;;14.20;99.90;;;;;;4997958;28;20496;-57
2021/09/01 04:16:54;;;;;;;15.60;11.93;;;14.20;99.90;;;;;;4997887;28;20806;-58
2021/09/01 04:19:21;;;;;;;18.17;12.23;;;14.20;99.90;;;;;;4997931;28;20964;-57
2021/09/01 04:21:49;;;;;;;17.33;11.33;;;14.20;99.90;;;;;;4998108;28;20465;-57
2021/09/01 04:24:16;;;;;;;17.60;10.67;;;14.10;99.90;;;;;;4997313;28;20551;-56
2021/09/01 04:26:43;;;;;;;17.60;10.93;;;14.10;99.90;;;;;;4992199;28;20528;-59
2021/09/01 04:29:10;;;;;;;16.40;11.50;;;14.10;99.90;;;;;;4978388;28;20465;-57
2021/09/01 04:31:37;;;;;;;20.67;11.57;;;14.00;99.90;;;;;;4978908;28;20470;-58
2021/09/01 04:34:07;;;;;;;19.20;12.47;;;14.00;99.90;;;;;;4978516;28;20977;-59
2021/09/01 04:36:33;;;;;;;21.23;11.83;;;14.00;99.90;;;;;;4978307;28;20544;-58
2021/09/01 04:39:04;;;;;;;16.43;12.10;;;14.00;99.90;;;;;;4978273;28;20501;-59
2021/09/01 04:41:33;;;;;;;14.90;10.70;;;14.10;99.90;;;;;;4978424;28;20505;-59
2021/09/01 04:44:01;;;;;;;19.13;13.07;;;14.00;99.90;;;;;;4978570;28;20461;-59
2021/09/01 04:46:28;;;;;;;22.97;12.57;;;14.00;99.90;;;;;;4978106;28;20469;-59
2021/09/01 04:48:55;;;;;;;18.03;11.57;;;14.00;99.90;;;;;;4978363;28;20556;-58
2021/09/01 04:51:22;;;;;;;19.60;12.37;;;14.00;99.90;;;;;;4978451;28;20462;-59
2021/09/01 04:53:49;;;;;;;17.43;11.63;;;14.00;99.90;;;;;;4978427;28;20865;-58
2021/09/01 04:56:17;;;;;;;18.17;12.90;;;14.00;99.90;;;;;;4978626;28;20736;-59
2021/09/01 04:58:47;;;;;;;18.43;12.30;;;14.00;99.90;;;;;;4978312;28;20524;-58
2021/09/01 05:01:14;;;;;;;21.67;12.70;;;13.90;99.90;;;;;;4978204;28;20466;-58
2021/09/01 05:03:41;;;;;;;22.97;12.93;;;13.90;99.90;;;;;;4978169;28;20512;-57
2021/09/01 05:06:12;;;;;;;16.87;12.33;;;13.90;99.90;;;;;;4977930;28;20505;-55
2021/09/01 05:08:39;;;;;;;20.40;13.23;;;13.90;99.90;;;;;;4978242;28;20474;-58
2021/09/01 05:11:06;;;;;;;19.97;12.77;;;13.90;99.90;;;;;;4977871;28;20465;-56
2021/09/01 05:13:36;;;;;;;20.57;13.47;;;13.90;99.90;;;;;;4978172;28;20520;-56
2021/09/01 05:16:03;;;;;;;21.37;12.80;;;13.90;99.90;;;;;;4978567;28;20493;-57
2021/09/01 05:18:30;;;;;;;19.80;12.80;;;14.00;99.90;;;;;;4977981;28;20466;-55
2021/09/01 05:21:00;;;;;;;14.33;10.97;;;13.90;99.90;;;;;;4978130;28;20474;-58
2021/09/01 05:23:32;;;;;;;17.00;12.00;;;13.90;99.90;;;;;;4979286;28;20465;-59
2021/09/01 05:26:00;;;;;;;17.33;12.93;;;13.90;99.90;;;;;;4998028;28;20481;-59
2021/09/01 05:28:28;;;;;;;16.67;11.83;;;13.90;99.90;;;;;;4978586;28;20877;-59
2021/09/01 05:31:00;;;;;;;20.03;13.33;;;14.00;99.90;;;;;;4977657;28;20513;-59
2021/09/01 05:33:30;;;;;;;21.70;11.47;;;14.00;99.90;;;;;;4977675;28;20469;-59
2021/09/01 05:35:57;;;;;;;13.53;10.50;;;14.00;99.90;;;;;;4978400;28;20540;-59
2021/09/01 05:38:24;;;;;;;13.73;9.67;;;14.00;99.90;;;;;;4977174;28;20494;-59
2021/09/01 05:40:53;;;;;;;12.23;9.60;;;14.00;99.90;;;;;;4976115;28;20469;-59
2021/09/01 05:43:22;;;;;;;14.07;10.30;;;14.10;99.90;;;;;;4975899;28;20950;-59
2021/09/01 05:45:51;;;;;;;15.33;10.77;;;14.20;96.40;;;;;;4975731;28;20517;-59
2021/09/01 05:48:22;;;;;;;17.43;11.20;;;14.30;1.00;;;;;;4978929;28;20465;-59
2021/09/01 05:50:52;;;;;;;16.50;10.90;;;14.20;99.90;;;;;;4980174;28;20769;-59
2021/09/01 05:53:19;;;;;;;14.40;11.40;;;14.20;1.00;;;;;;4980965;28;21056;-59
2021/09/01 05:55:50;;;;;;;19.60;10.70;;;14.20;1.00;;;;;;4980490;28;20523;-54
2021/09/01 05:58:19;;;;;;;15.30;10.47;;;14.40;1.00;;;;;;4980276;28;20815;-55
2021/09/01 06:00:54;;;;;;;17.07;10.33;;;14.30;1.00;;;;;;4979417;28;20469;-57
2021/09/01 06:03:26;;;;;;;16.57;9.90;;;14.40;1.00;;;;;;4980537;28;20487;-59
2021/09/01 06:05:57;;;;;;;15.33;10.47;;;14.30;99.90;;;;;;4980583;28;20552;-57
2021/09/01 06:08:25;;;;;;;13.10;10.77;;;14.40;99.90;;;;;;4980660;28;20470;-56
2021/09/01 06:10:57;;;;;;;14.13;10.77;;;14.40;1.00;;;;;;4980497;28;20520;-58
2021/09/01 06:13:27;;;;;;;14.07;10.50;;;14.50;1.00;;;;;;4980261;28;20529;-55
2021/09/01 06:15:55;;;;;;;14.80;10.20;;;14.50;99.90;;;;;;4980658;28;20489;-54
2021/09/01 06:18:24;;;;;;;14.50;10.10;;;14.60;99.90;;;;;;4980532;28;20562;-54
2021/09/01 06:20:51;;;;;;;14.53;10.77;;;14.50;51.20;;;;;;4980697;28;20502;-52
2021/09/01 06:23:22;;;;;;;17.37;10.60;;;14.60;26.10;;;;;;4980491;28;20621;-58
2021/09/01 06:25:49;;;;;;;14.73;10.80;;;14.60;1.00;;;;;;5000574;28;20815;-59
2021/09/01 06:28:17;;;;;;;13.33;10.03;;;14.60;20.20;;;;;;4999864;28;20873;-58
2021/09/01 06:30:44;;;;;;;16.33;11.33;;;14.50;99.90;;;;;;4999942;28;20465;-59
2021/09/01 06:33:11;;;;;;;12.07;9.33;;;14.50;1.00;;;;;;5000009;28;20464;-59
2021/09/01 06:35:41;;;;;;;13.93;10.30;;;14.60;99.90;;;;;;5000186;28;20594;-59
2021/09/01 06:38:09;;;;;;;13.37;10.07;;;14.80;99.90;;;;;;4999776;28;20464;-59
2021/09/01 06:40:36;;;;;;;12.30;9.60;;;14.90;99.90;;;;;;5000061;28;20563;-59
2021/09/01 06:43:03;;;;;;;19.87;9.60;;;14.80;72.10;;;;;;4999394;28;20468;-59
2021/09/01 06:45:30;;;;;;;14.33;10.30;;;14.80;1.00;;;;;;5000208;28;20551;-59
2021/09/01 06:47:57;;;;;;;11.13;8.53;;;14.70;92.00;;;;;;5000029;28;20919;-59
2021/09/01 06:50:26;;;;;;;9.27;8.13;;;14.70;61.60;;;;;;4999361;28;20830;-59
2021/09/01 06:52:59;;;;;;;10.83;8.50;;;14.90;1.00;;;;;;4999625;28;20928;-57
2021/09/01 06:55:26;;;;;;;18.93;8.53;;;15.10;1.00;;;;;;4999748;28;20500;-58
2021/09/01 06:57:53;;;;;;;19.37;9.43;;;15.30;1.00;;;;;;4998523;28;20496;-59
2021/09/01 07:00:21;;;;;;;14.40;8.93;;;15.40;99.90;;;;;;4999094;28;20551;-55
2021/09/01 07:02:52;;;;;;;9.67;7.70;;;15.40;99.90;;;;;;4999460;28;20465;-59
2021/09/01 07:05:19;;;;;;;12.40;8.27;;;15.60;99.90;;;;;;4999543;28;20556;-59
2021/09/01 07:07:48;;;;;;;14.10;7.93;;;15.60;31.30;;;;;;4999357;28;20597;-58
2021/09/01 07:10:17;;;;;;;12.20;9.47;;;15.70;1.00;;;;;;4999086;28;20464;-58
2021/09/01 07:12:46;;;;;;;9.97;6.83;;;15.60;1.00;;;;;;4999133;28;20608;-59
2021/09/01 07:15:15;;;;;;;8.77;7.77;;;15.60;1.00;;;;;;4999238;28;20952;-58
2021/09/01 07:17:44;;;;;;;10.60;7.27;;;15.50;1.00;;;;;;4999494;28;20469;-56
2021/09/01 07:20:11;;;;;;;11.47;7.83;;;15.40;1.00;;;;;;4998373;28;20472;-57
2021/09/01 07:22:39;;;;;;;9.07;8.17;;;15.30;1.00;;;;;;4999241;28;20527;-57
2021/09/01 07:25:07;;;;;;;10.10;8.17;;;15.30;1.00;;;;;;4984335;28;20919;-57
2021/09/01 07:27:36;;;;;;;8.40;7.27;;;15.20;1.00;;;;;;4991291;28;20882;-57
2021/09/01 07:30:03;;;;;;;9.23;7.03;;;15.40;1.00;;;;;;4998673;28;20528;-57
2021/09/01 07:32:30;;;;;;;10.93;8.07;;;15.50;1.00;;;;;;4998660;28;20575;-57
2021/09/01 07:34:59;;;;;;;12.70;7.43;;;15.70;1.00;;;;;;4993623;28;20588;-57
2021/09/01 07:37:26;;;;;;;11.27;8.50;;;15.70;1.00;;;;;;4991243;28;20539;-57
2021/09/01 07:39:53;;;;;;;12.10;8.53;;;15.80;1.00;;;;;;4999223;28;20519;-57
2021/09/01 07:42:20;;;;;;;10.17;8.30;;;15.90;1.00;;;;;;4979103;28;20466;-57
2021/09/01 07:44:48;;;;;;;19.57;8.93;;;15.80;1.00;;;;;;4979107;28;20533;-57
2021/09/01 07:47:18;;;;;;;9.70;8.33;;;15.70;1.00;;;;;;4979122;28;20532;-57
2021/09/01 07:49:47;;;;;;;10.27;8.10;;;15.40;1.00;;;;;;4979290;28;20505;-55
2021/09/01 07:52:16;;;;;;;10.43;8.33;;;15.40;1.00;;;;;;4979633;28;20470;-57
2021/09/01 07:54:43;;;;;;;12.23;8.77;;;15.40;1.00;;;;;;4998384;28;20523;-55
2021/09/01 07:57:12;;;;;;;15.90;9.37;;;15.40;1.00;;;;;;4998549;28;20500;-57
2021/09/01 07:59:40;;;;;;;13.00;8.67;;;15.30;1.00;;;;;;4993211;28;20465;-55
2021/09/01 08:02:08;;;;;;;12.50;9.53;;;15.20;1.00;;;;;;4986803;28;20469;-52
2021/09/01 08:04:35;;;;;;;11.73;8.20;;;15.20;1.00;;;;;;4998156;28;20933;-57
2021/09/01 08:07:05;;;;;;;12.50;9.63;;;15.20;1.00;;;;;;4986731;28;20818;-54
2021/09/01 08:09:32;;;;;;;12.67;10.67;;;15.20;1.00;;;;;;4979955;28;20505;-56
2021/09/01 08:11:59;;;;;;;10.70;9.53;;;15.30;1.00;;;;;;4994229;28;20784;-55
2021/09/01 08:14:26;;;;;;;12.67;9.30;;;15.30;1.00;;;;;;4997554;28;20465;-57
2021/09/01 08:16:53;;;;;;;11.83;9.40;;;15.30;1.00;;;;;;4997995;28;20579;-57
2021/09/01 08:19:24;;;;;;;11.13;9.50;;;15.30;1.00;;;;;;4993940;28;20762;-57
2021/09/01 08:21:54;;;;;;;12.40;10.13;;;15.40;1.00;;;;;;4988850;28;20472;-57
2021/09/01 08:24:22;;;;;;;14.13;11.70;;;15.30;1.00;;;;;;4991357;28;20548;-57
2021/09/01 08:26:49;;;;;;;10.97;9.13;;;15.40;1.00;;;;;;4991225;28;20497;-57
2021/09/01 08:29:17;;;;;;;14.43;9.87;;;15.50;1.00;;;;;;4994184;28;21052;-57
2021/09/01 08:31:47;;;;;;;13.20;9.80;;;15.40;1.00;;;;;;4995031;28;20477;-57
2021/09/01 09:08:18;;;;;;;15.90;13.07;;;15.30;46.60;;;;;;4937767;23;20492;-59
2021/09/01 09:10:46;;;;;;;18.60;13.03;;;15.50;29.20;;;;;;4988753;28;20500;-59
2021/09/01 09:13:15;;;;;;;14.63;11.27;;;15.50;1.00;;;;;;4988787;28;20757;-58
2021/09/01 09:15:43;;;;;;;16.60;11.60;;;15.40;1.00;;;;;;4978758;28;20926;-58
2021/09/01 09:18:26;;;;;;;13.77;10.33;;;15.40;1.00;;;;;;4980002;28;20775;-58
2021/09/01 09:21:12;;;;;;;15.73;11.57;;;15.40;1.00;;;;;;4981323;28;20516;-59
2021/09/01 09:23:45;;;;;;;13.80;10.53;;;15.40;1.00;;;;;;4989306;28;20905;-59
2021/09/01 09:26:26;;;;;;;13.13;9.43;;;15.50;1.00;;;;;;4982433;28;20564;-59
2021/09/01 09:29:11;;;;;;;14.10;9.80;;;15.60;1.00;;;;;;5001502;28;20526;-59
2021/09/01 09:31:38;;;;;;;14.43;9.90;;;15.70;1.00;;;;;;5000881;28;20464;-59
2021/09/01 09:34:10;;;;;;;12.03;10.67;;;15.70;1.00;;;;;;5001058;28;20890;-58
2021/09/01 09:36:37;;;;;;;13.40;10.70;;;15.80;1.00;;;;;;4996211;28;20489;-59
2021/09/01 09:39:08;;;;;;;18.23;10.90;;;15.90;1.00;;;;;;4992505;28;20462;-59
2021/09/01 09:41:35;;;;;;;14.73;11.33;;;15.90;1.00;;;;;;4981720;28;20525;-58
2021/09/01 09:44:06;;;;;;;12.73;10.70;;;16.00;1.00;;;;;;4996251;28;20551;-59
2021/09/01 09:46:49;;;;;;;14.77;13.17;;;16.30;1.00;;;;;;5000384;28;20870;-59
2021/09/01 09:49:29;;;;;;;17.60;13.73;;;16.50;1.00;;;;;;5000974;28;20817;-57
2021/09/01 09:51:57;;;;;;;15.70;14.00;;;16.40;1.00;;;;;;4997100;28;20468;-57
2021/09/01 09:54:30;;;;;;;17.30;12.47;;;16.40;1.00;;;;;;4986936;28;20774;-57
2021/09/01 09:57:10;;;;;;;18.47;13.20;;;16.30;1.00;;;;;;4998663;28;20474;-54
2021/09/01 09:59:46;;;;;;;15.97;13.47;;;16.00;1.00;;;;;;5000143;28;20527;-57
2021/09/01 10:02:13;;;;;;;18.30;14.33;;;16.00;1.00;;;;;;5000311;28;20464;-57
2021/09/01 10:04:41;;;;;;;15.43;13.13;;;15.90;1.00;;;;;;5000347;28;20468;-57
2021/09/01 10:07:10;;;;;;;19.53;12.30;;;15.70;1.00;;;;;;5000008;28;20463;-55
2021/09/01 10:09:41;;;;;;;17.63;12.60;;;15.60;1.00;;;;;;4999920;28;20468;-57
2021/09/01 10:12:09;;;;;;;12.73;11.10;;;15.60;1.00;;;;;;4986971;28;20533;-57
2021/09/01 10:14:39;;;;;;;16.67;12.30;;;15.80;1.00;;;;;;4997309;28;20461;-57
2021/09/01 10:17:09;;;;;;;14.60;11.10;;;15.90;1.00;;;;;;4995367;28;20792;-55
2021/09/01 10:19:39;;;;;;;16.97;11.83;;;16.00;1.00;;;;;;4980799;28;20572;-55
2021/09/01 10:22:19;;;;;;;12.60;11.30;;;16.10;1.00;;;;;;4980961;28;20466;-55
2021/09/01 10:24:51;;;;;;;13.57;12.10;;;16.30;1.00;;;;;;4992517;28;20464;-53
2021/09/01 10:27:22;;;;;;;13.43;11.77;;;16.50;1.00;;;;;;5000001;28;20461;-54
2021/09/01 10:29:53;;;;;;;14.63;13.00;;;16.60;1.00;;;;;;4991348;28;20474;-55
2021/09/01 10:32:28;;;;;;;15.10;13.30;;;16.80;1.00;;;;;;4980295;28;20490;-57
2021/09/01 10:38:30;;;;;;;14.50;12.40;;;17.00;1.00;;;;;;4990450;28;20457;-53
2021/09/01 10:41:15;;;;;;;15.10;12.50;;;17.10;1.00;;;;;;4999453;28;20469;-56
2021/09/01 10:43:45;;;;;;;14.53;12.63;;;17.20;1.00;;;;;;4996635;28;20487;-56
2021/09/01 10:46:17;;;;;;;13.30;11.80;;;17.40;1.00;;;;;;5000063;28;20472;-56
2021/09/01 10:49:03;;;;;;;12.70;11.40;;;17.60;1.00;;;;;;4998720;28;20461;-58
2021/09/01 10:51:31;;;;;;;16.50;11.70;;;17.80;1.00;;;;;;4995006;28;20932;-59
2021/09/01 10:54:33;;;;;;;12.73;11.20;;;18.00;1.00;;;;;;4981167;28;20770;-58
2021/09/01 10:57:20;;;;;;;12.93;11.57;;;17.80;1.00;;;;;;4979558;28;20493;-59
2021/09/01 10:59:47;;;;;;;13.67;10.70;;;17.90;1.00;;;;;;4980268;28;20465;-59
2021/09/01 11:02:16;;;;;;;13.23;11.70;;;17.90;1.00;;;;;;4979956;28;20474;-58
2021/09/01 11:04:48;;;;;;;14.33;11.83;;;18.00;1.00;;;;;;4980546;28;20473;-58
2021/09/01 11:07:21;;;;;;;12.67;10.80;;;18.10;1.00;;;;;;4979120;28;20509;-58
2021/09/01 11:10:04;;;;;;;11.40;10.20;;;18.20;1.00;;;;;;4979409;28;20469;-58
2021/09/01 11:12:41;;;;;;;12.40;11.10;;;18.30;1.00;;;;;;4979792;28;20475;-58
2021/09/01 11:15:09;;;;;;;12.07;10.83;;;18.30;1.00;;;;;;4979342;28;20476;-58
2021/09/01 11:17:41;;;;;;;13.77;11.67;;;18.30;1.00;;;;;;4979932;28;20493;-57
2021/09/01 11:20:12;;;;;;;16.40;11.63;;;18.30;1.00;;;;;;4979179;28;20470;-59
2021/09/01 11:22:43;;;;;;;14.87;11.20;;;18.40;1.00;;;;;;4979187;28;20744;-56
2021/09/01 11:25:13;;;;;;;12.23;10.93;;;18.50;1.00;;;;;;4993239;28;20876;-58
2021/09/01 11:27:48;;;;;;;11.90;10.53;;;18.20;1.00;;;;;;4999000;28;20548;-58
2021/09/01 11:30:18;;;;;;;12.80;10.30;;;18.30;1.00;;;;;;4998744;28;20525;-56
2021/09/01 11:32:45;;;;;;;14.00;12.53;;;18.40;1.00;;;;;;4998884;28;20469;-58
2021/09/01 11:35:20;;;;;;;14.40;9.77;;;18.60;1.00;;;;;;4998249;28;20461;-55
2021/09/01 11:37:58;;;;;;;14.60;11.20;;;18.70;1.00;;;;;;4998795;28;20504;-58
2021/09/01 11:40:35;;;;;;;12.43;11.00;;;18.50;1.00;;;;;;4998067;28;20470;-55
2021/09/01 11:43:09;;;;;;;13.33;11.40;;;18.50;1.00;;;;;;4997068;28;20856;-57
2021/09/01 11:45:48;;;;;;;12.10;10.70;;;18.00;1.00;;;;;;4987648;28;20465;-58
2021/09/01 11:48:16;;;;;;;18.80;11.40;;;17.40;1.00;;;;;;4978902;28;20466;-58
2021/09/01 11:50:43;;;;;;;11.30;9.50;;;17.30;1.00;;;;;;4997395;28;20464;-55
2021/09/01 11:53:14;;;;;;;11.90;10.30;;;17.20;1.00;;;;;;4998532;28;20469;-52
2021/09/01 11:55:42;;;;;;;15.53;11.00;;;17.20;1.00;;;;;;4998710;28;20688;-58
2021/09/01 11:58:18;;;;;;;13.47;10.53;;;17.00;1.00;;;;;;4998070;28;20500;-58
2021/09/01 12:00:48;;;;;;;16.43;10.80;;;16.90;1.00;;;;;;4993471;28;20756;-51
2021/09/01 12:03:16;;;;;;;13.43;10.00;;;16.80;1.00;;;;;;4982370;28;20470;-55
2021/09/01 12:05:43;;;;;;;15.77;11.43;;;16.80;1.00;;;;;;4984084;28;21010;-56
2021/09/01 12:08:21;;;;;;;17.30;11.33;;;16.80;1.00;;;;;;4993668;28;20455;-54
2021/09/01 12:10:50;;;;;;;15.27;12.30;;;16.90;1.00;;;;;;4996058;28;20464;-56
2021/09/01 12:13:20;;;;;;;16.40;11.00;;;16.90;1.00;;;;;;4979077;28;20465;-58
2021/09/01 12:15:57;;;;;;;13.93;11.07;;;16.80;1.00;;;;;;4978727;28;20845;-54
2021/09/01 12:18:24;;;;;;;12.80;10.53;;;16.80;1.00;;;;;;4978994;28;20556;-57
2021/09/01 12:21:00;;;;;;;13.03;11.10;;;16.70;1.00;;;;;;4978308;28;20520;-57
2021/09/01 12:23:27;;;;;;;13.17;10.53;;;16.50;1.00;;;;;;4983954;28;20829;-55
2021/09/01 12:26:05;;;;;;;14.13;10.83;;;16.60;1.00;;;;;;4985511;28;20464;-58
2021/09/01 12:28:44;;;;;;;11.20;10.03;;;16.70;1.00;;;;;;4986039;28;20487;-58
2021/09/01 12:31:22;;;;;;;12.43;9.17;;;16.80;1.00;;;;;;4986823;28;20969;-57
2021/09/01 12:33:52;;;;;;;14.30;10.53;;;17.00;1.00;;;;;;4983201;28;20454;-56
2021/09/01 12:36:28;;;;;;;11.30;10.20;;;17.20;1.00;;;;;;4984021;28;20579;-58
2021/09/01 12:38:58;;;;;;;12.43;9.77;;;17.30;1.00;;;;;;4985422;28;20477;-58
2021/09/01 12:41:27;;;;;;;12.40;9.43;;;17.60;1.00;;;;;;4988515;28;20466;-57
2021/09/01 12:44:02;;;;;;;10.60;8.60;;;17.50;1.00;;;;;;4987194;28;20473;-58
2021/09/01 13:22:04;;;;;;;11.30;9.40;;;16.60;1.00;;;;;;4988795;28;20571;-60
2021/09/01 13:24:32;;;;;;;11.83;9.53;;;16.50;1.00;;;;;;4989292;28;20474;-60
2021/09/01 13:27:00;;;;;;;12.37;10.60;;;16.50;1.00;;;;;;4990314;28;20882;-58
2021/09/01 13:29:30;;;;;;;14.40;9.73;;;16.50;1.00;;;;;;4988512;28;20808;-59
2021/09/01 13:31:57;;;;;;;14.03;10.40;;;16.60;1.00;;;;;;4988194;28;20457;-59
2021/09/01 13:34:24;;;;;;;16.97;10.77;;;16.40;1.00;;;;;;4981414;28;20472;-59
2021/09/01 13:36:51;;;;;;;12.03;10.60;;;16.40;1.00;;;;;;4981449;28;20552;-59
2021/09/01 13:39:19;;;;;;;13.40;11.70;;;16.60;1.00;;;;;;4981683;28;20804;-59
2021/09/01 13:41:47;;;;;;;14.33;11.80;;;16.50;1.00;;;;;;4980986;28;20469;-59
2021/09/01 13:44:17;;;;;;;16.90;12.90;;;16.60;1.00;;;;;;4980982;28;20543;-59
2021/09/01 13:46:46;;;;;;;13.87;12.00;;;16.80;1.00;;;;;;4981206;28;20820;-59
2021/09/01 13:49:13;;;;;;;11.87;10.57;;;16.80;1.00;;;;;;4986468;28;20535;-59
2021/09/01 13:51:40;;;;;;;18.40;13.23;;;16.60;1.00;;;;;;4999831;28;20469;-58
2021/09/01 13:54:10;;;;;;;14.60;10.90;;;16.50;1.00;;;;;;4998400;28;20473;-58
2021/09/01 13:56:38;;;;;;;12.63;10.07;;;16.50;1.00;;;;;;4997653;28;20489;-59
2021/09/01 13:59:11;;;;;;;14.40;12.00;;;16.50;1.00;;;;;;4983524;28;20779;-59
2021/09/01 14:01:41;;;;;;;13.37;11.20;;;16.50;1.00;;;;;;4979235;28;20465;-59
2021/09/01 14:04:09;;;;;;;14.20;11.60;;;16.60;1.00;;;;;;4978423;28;20540;-59
2021/09/01 14:40:55;;;;;;;12.43;10.17;;;16.90;1.00;;;;;;1040427;23;21871;-55
2021/09/01 14:43:23;;;;;;;13.87;10.97;;;16.80;1.00;;;;;;4938593;28;1177140;-58
2021/09/01 14:45:56;;;;;;;10.63;9.53;;;16.70;1.00;;;;;;4980679;28;20265;-57
2021/09/01 14:48:24;;;;;;;13.17;9.50;;;16.80;1.00;;;;;;4979822;28;20465;-59
2021/09/01 14:50:52;;;;;;;14.93;10.97;;;16.80;1.00;;;;;;4980315;28;20454;-56
2021/09/01 14:53:22;;;;;;;11.10;9.27;;;16.70;1.00;;;;;;4980580;28;20519;-56
2021/09/01 14:55:53;;;;;;;13.60;10.70;;;16.70;1.00;;;;;;4980623;28;20762;-59
2021/09/01 14:58:20;;;;;;;14.17;10.53;;;16.50;1.00;;;;;;4980048;28;20505;-58
2021/09/01 15:00:50;;;;;;;12.70;10.30;;;16.60;1.00;;;;;;4980164;28;20447;-58
2021/09/01 15:03:22;;;;;;;13.67;9.67;;;16.60;1.00;;;;;;4979531;28;20469;-57
2021/09/01 15:05:56;;;;;;;14.03;10.93;;;16.50;1.00;;;;;;4975232;28;20466;-57
2021/09/01 15:08:25;;;;;;;11.90;10.50;;;16.50;1.00;;;;;;4958385;29;20461;-56
2021/09/01 15:10:54;;;;;;;11.50;9.10;;;16.40;1.00;;;;;;4958953;29;20544;-56
2021/09/01 15:13:20;;;;;;;14.00;10.77;;;16.40;1.00;;;;;;4959480;29;20521;-59
2021/09/01 15:15:49;;;;;;;13.60;10.20;;;16.30;1.00;;;;;;4960402;29;20466;-59
2021/09/01 15:18:22;;;;;;;14.13;10.60;;;16.30;1.00;;;;;;4958209;28;20498;-59
2021/09/01 15:20:50;;;;;;;17.03;10.47;;;16.40;1.00;;;;;;4959737;29;20518;-59
2021/09/01 15:23:17;;;;;;;15.27;10.57;;;16.40;1.00;;;;;;4959762;29;20750;-59
2021/09/01 15:25:45;;;;;;;15.77;10.90;;;16.40;1.00;;;;;;4959381;29;20509;-59
2021/09/01 15:28:13;;;;;;;12.90;11.30;;;16.40;1.00;;;;;;4975981;28;20879;-59
2021/09/01 15:30:41;;;;;;;15.73;12.00;;;16.40;1.00;;;;;;4979128;28;20466;-59
2021/09/01 15:33:08;;;;;;;16.87;11.87;;;16.50;1.00;;;;;;4979220;28;20493;-59
2021/09/01 15:35:35;;;;;;;12.50;11.00;;;16.40;1.00;;;;;;4979514;28;20505;-59
2021/09/01 15:38:10;;;;;;;14.00;11.37;;;16.50;1.00;;;;;;4979441;28;20527;-59
2021/09/01 15:40:39;;;;;;;16.40;12.10;;;16.40;1.00;;;;;;4979326;28;20533;-59
2021/09/01 15:43:10;;;;;;;17.10;13.60;;;16.20;1.00;;;;;;4979295;28;20500;-59